Indian River Shores, Florida
Current Conditions -  °F | °C
As of 10:53 AM on Saturday 22 Nov 2014 (Local Time) from KVRB Reporting Station
Light Rain Light Rain  
Wind Chill: 70°   Ceiling: 2500
Heat Index: 70°   Visibility: 5mi
Dew Point: 66°   Wind: 15mph
Humidity: 87%   Direction: 90°E
Pressure: 30.24"   Gusts: 25mph
Location:  27.7066°N, 80.3826°W
Report Text: KVRB 221553Z 09013G22KT 5SM -RA BR OVC025 21/19 A3024 RMK AO2 RAE05B29 SLP238 P0002 T02110189
Loading
Personal Weather Stations






























Interactive Weather Map New forecast layout! Learn more

10-Day Weather Forecast

Advertisements
Track Severe Weather on mobile